Time;durP1;ratioP1;P1;durP2;ratioP2;P2;SDS_P1;SDS_P2;PMS_P1;PMS_P2;Temp;Humidity;BMP_temperature;BMP_pressure;BME280_temperature;BME280_humidity;BME280_pressure;Samples;Min_cycle;Max_cycle;Signal;HPM_P1;HPM_P2
2023/06/23 00:00:43;;;;;;;10.60;6.28;;;18.60;99.90;;;;;;5018666;28;20299;-74
2023/06/23 00:03:09;;;;;;;10.60;6.13;;;18.70;99.90;;;;;;5021631;28;20491;-74
2023/06/23 00:05:35;;;;;;;12.25;6.18;;;18.60;99.90;;;;;;5017564;28;20045;-75
2023/06/23 00:08:01;;;;;;;9.77;6.20;;;18.60;99.90;;;;;;5020803;28;20269;-75
2023/06/23 00:10:27;;;;;;;10.40;6.90;;;18.50;99.90;;;;;;5014572;28;20038;-74
2023/06/23 00:12:53;;;;;;;9.93;6.95;;;18.50;99.90;;;;;;5016722;28;20049;-74
2023/06/23 00:15:18;;;;;;;12.10;6.93;;;18.60;99.90;;;;;;5015861;28;20084;-74
2023/06/23 00:17:47;;;;;;;12.65;7.13;;;18.50;99.90;;;;;;5015566;28;20076;-74
2023/06/23 00:20:13;;;;;;;14.73;7.38;;;18.50;99.90;;;;;;5013629;28;20076;-74
2023/06/23 00:22:40;;;;;;;12.00;7.43;;;18.50;99.90;;;;;;5014888;28;20173;-74
2023/06/23 00:25:10;;;;;;;10.13;6.57;;;18.50;99.90;;;;;;4995080;28;20128;-74
2023/06/23 00:27:37;;;;;;;10.35;7.25;;;18.50;99.90;;;;;;4993613;28;20128;-74
2023/06/23 00:30:04;;;;;;;10.23;6.60;;;18.50;99.90;;;;;;4996449;28;20046;-74
2023/06/23 00:32:29;;;;;;;13.27;7.88;;;18.50;99.90;;;;;;5029367;28;20096;-74
2023/06/23 00:34:55;;;;;;;10.65;7.40;;;18.50;99.90;;;;;;4997779;28;20475;-74
2023/06/23 00:37:21;;;;;;;10.30;7.38;;;18.50;99.90;;;;;;5020204;28;20120;-74
2023/06/23 00:39:46;;;;;;;10.55;6.88;;;18.50;99.90;;;;;;5020700;28;20434;-74
2023/06/23 00:42:12;;;;;;;10.32;7.25;;;18.50;99.90;;;;;;5018836;28;20049;-74
2023/06/23 00:44:38;;;;;;;11.77;6.85;;;18.50;99.90;;;;;;4998485;28;20128;-74
2023/06/23 00:47:04;;;;;;;12.10;6.78;;;18.50;99.90;;;;;;5006095;28;20270;-74
2023/06/23 00:49:30;;;;;;;13.63;7.82;;;18.50;99.90;;;;;;5024030;28;20052;-74
2023/06/23 00:51:58;;;;;;;;;;;18.40;99.90;;;;;;5006241;28;20069;-74
2023/06/23 00:54:28;;;;;;;12.13;6.95;;;18.50;99.90;;;;;;5023574;28;19924;-74
2023/06/23 00:56:58;;;;;;;11.43;7.85;;;18.40;99.90;;;;;;5012426;28;20103;-74
2023/06/23 00:59:30;;;;;;;11.90;8.18;;;18.40;99.90;;;;;;5035221;28;20131;-75
2023/06/23 01:02:01;;;;;;;12.02;7.68;;;18.40;99.90;;;;;;5019173;28;20103;-74
2023/06/23 01:04:29;;;;;;;12.48;8.13;;;18.40;99.90;;;;;;5005938;28;20068;-74
2023/06/23 01:07:26;;;;;;;14.82;9.48;;;18.40;99.90;;;;;;5020424;28;20215;-74
2023/06/23 01:10:03;;;;;;;15.03;8.53;;;18.40;99.90;;;;;;5016877;28;20367;-74
2023/06/23 01:12:37;;;;;;;12.15;8.60;;;18.40;99.90;;;;;;5015176;28;20874;-75
2023/06/23 01:15:13;;;;;;;13.05;8.40;;;18.30;99.90;;;;;;5019213;28;20081;-74
2023/06/23 01:17:57;;;;;;;14.48;7.93;;;18.30;99.90;;;;;;5018889;28;20042;-74
2023/06/23 01:20:27;;;;;;;13.18;7.38;;;18.30;99.90;;;;;;5013687;28;20046;-74
2023/06/23 01:23:20;;;;;;;15.40;7.85;;;18.30;99.90;;;;;;5017136;28;20060;-74
2023/06/23 01:26:14;;;;;;;12.05;7.65;;;18.20;99.90;;;;;;5037968;28;20060;-74
2023/06/23 01:28:45;;;;;;;12.77;7.45;;;18.20;99.90;;;;;;5020166;28;20049;-74
2023/06/23 01:31:15;;;;;;;13.82;6.80;;;18.20;99.90;;;;;;5021095;28;20096;-74
2023/06/23 01:33:48;;;;;;;11.55;6.53;;;18.10;99.90;;;;;;5024018;28;20092;-74
2023/06/23 01:36:21;;;;;;;12.32;6.70;;;18.10;99.90;;;;;;5000539;28;20115;-74
2023/06/23 01:38:52;;;;;;;11.85;6.95;;;18.10;99.90;;;;;;5018864;28;20158;-74
2023/06/23 01:41:23;;;;;;;10.88;6.68;;;18.00;99.90;;;;;;5005613;28;20049;-74
2023/06/23 01:43:55;;;;;;;10.60;6.28;;;18.00;99.90;;;;;;5015539;28;20081;-75
2023/06/23 01:46:25;;;;;;;12.18;6.63;;;18.00;99.90;;;;;;5020123;28;20056;-74
2023/06/23 01:48:57;;;;;;;12.60;6.88;;;17.90;99.90;;;;;;5019054;28;20135;-74
2023/06/23 01:51:28;;;;;;;10.25;6.80;;;17.90;99.90;;;;;;5016385;28;20409;-74
2023/06/23 01:53:55;;;;;;;11.02;6.78;;;17.90;99.90;;;;;;5017964;28;20053;-74
2023/06/23 01:56:24;;;;;;;11.30;6.75;;;17.90;99.90;;;;;;5020232;28;20042;-74
2023/06/23 01:58:50;;;;;;;15.50;7.63;;;17.90;99.90;;;;;;5018606;28;20507;-74
2023/06/23 02:01:17;;;;;;;15.15;6.78;;;17.90;99.90;;;;;;5012291;28;20045;-74
2023/06/23 02:03:48;;;;;;;13.80;7.18;;;17.90;99.90;;;;;;5018369;28;20411;-74
2023/06/23 02:06:15;;;;;;;11.27;6.80;;;17.90;99.90;;;;;;5018197;28;20041;-75
2023/06/23 02:08:41;;;;;;;13.32;7.55;;;17.90;99.90;;;;;;5014671;28;20126;-74
2023/06/23 02:11:07;;;;;;;;;;;17.90;99.90;;;;;;5020851;28;20276;-74
2023/06/23 02:13:33;;;;;;;10.73;6.88;;;17.80;99.90;;;;;;5046730;28;20072;-74
2023/06/23 02:16:01;;;;;;;12.80;7.28;;;17.80;99.90;;;;;;5018912;28;20045;-74
2023/06/23 02:18:28;;;;;;;16.58;8.27;;;17.80;99.90;;;;;;5019057;28;20056;-74
2023/06/23 02:20:56;;;;;;;12.57;7.43;;;17.80;99.90;;;;;;5016491;28;20041;-74
2023/06/23 02:23:23;;;;;;;15.95;7.13;;;17.80;99.90;;;;;;5020808;28;20049;-74
2023/06/23 02:25:50;;;;;;;12.43;7.10;;;17.70;99.90;;;;;;5016630;28;20053;-74
2023/06/23 02:28:16;;;;;;;11.05;7.50;;;17.70;99.90;;;;;;5024903;28;20056;-74
2023/06/23 02:30:43;;;;;;;13.35;7.03;;;17.70;99.90;;;;;;5026995;28;20040;-74
2023/06/23 02:33:08;;;;;;;16.33;7.60;;;17.70;99.90;;;;;;5004994;28;20395;-74
2023/06/23 02:35:34;;;;;;;11.57;7.22;;;17.60;99.90;;;;;;5021590;28;20043;-74
2023/06/23 02:38:03;;;;;;;11.18;7.43;;;17.70;99.90;;;;;;5019949;28;20038;-74
2023/06/23 02:40:33;;;;;;;11.88;7.53;;;17.60;99.90;;;;;;5020033;28;20223;-74
2023/06/23 02:43:17;;;;;;;14.88;7.30;;;17.60;99.90;;;;;;5019164;28;20051;-74
2023/06/23 02:45:47;;;;;;;10.18;7.45;;;17.60;99.90;;;;;;5022878;28;20652;-74
2023/06/23 02:48:17;;;;;;;15.32;8.88;;;17.50;99.90;;;;;;5022999;28;20049;-74
2023/06/23 02:50:44;;;;;;;12.60;8.02;;;17.50;99.90;;;;;;5016942;28;20049;-74
2023/06/23 02:53:16;;;;;;;13.13;8.43;;;17.50;99.90;;;;;;5024511;28;20041;-74
2023/06/23 02:55:46;;;;;;;12.93;8.82;;;17.50;99.90;;;;;;5026748;28;20495;-74
2023/06/23 02:58:16;;;;;;;15.27;9.73;;;17.50;99.90;;;;;;5017430;28;20089;-77
2023/06/23 03:00:43;;;;;;;17.55;10.95;;;17.40;99.90;;;;;;5025059;28;20113;-80
2023/06/23 03:03:13;;;;;;;17.75;10.95;;;17.40;99.90;;;;;;5016822;28;20074;-74
2023/06/23 03:05:39;;;;;;;24.38;12.93;;;17.40;99.90;;;;;;5037581;28;20511;-74
2023/06/23 03:08:08;;;;;;;18.83;12.40;;;17.40;99.90;;;;;;5019014;28;20045;-74
2023/06/23 03:10:33;;;;;;;22.63;13.00;;;17.30;99.90;;;;;;5023067;28;20053;-74
2023/06/23 03:13:00;;;;;;;21.73;12.13;;;17.30;99.90;;;;;;5022363;28;20057;-74
2023/06/23 03:15:27;;;;;;;19.92;12.02;;;17.30;99.90;;;;;;5018402;28;20512;-74
2023/06/23 03:17:58;;;;;;;19.58;13.73;;;17.30;99.90;;;;;;5022924;28;20033;-74
2023/06/23 03:20:36;;;;;;;19.15;12.68;;;17.30;99.90;;;;;;5007622;28;20148;-74
2023/06/23 03:23:05;;;;;;;20.35;13.95;;;17.30;99.90;;;;;;5025326;28;20084;-74
2023/06/23 03:25:31;;;;;;;21.23;14.00;;;17.30;99.90;;;;;;5020011;28;20038;-73
2023/06/23 03:28:02;;;;;;;23.48;14.00;;;17.30;99.90;;;;;;5019755;28;20041;-73
2023/06/23 03:30:36;;;;;;;24.92;14.27;;;17.30;99.90;;;;;;5025411;28;20507;-73
2023/06/23 03:33:07;;;;;;;21.67;14.52;;;17.20;99.90;;;;;;5026093;28;20034;-74
2023/06/23 03:35:40;;;;;;;20.85;12.73;;;17.30;99.90;;;;;;5021314;28;20042;-74
2023/06/23 03:38:09;;;;;;;19.20;13.18;;;17.20;99.90;;;;;;5025269;28;20091;-74
2023/06/23 03:40:41;;;;;;;21.25;13.38;;;17.20;99.90;;;;;;5018039;28;20323;-74
2023/06/23 03:43:15;;;;;;;21.20;12.75;;;17.20;99.90;;;;;;5020756;28;20049;-74
2023/06/23 03:45:44;;;;;;;21.35;12.63;;;17.20;99.90;;;;;;5024146;28;20041;-73
2023/06/23 03:48:12;;;;;;;21.77;13.35;;;17.20;99.90;;;;;;5019684;28;20508;-77
2023/06/23 03:50:41;;;;;;;19.83;12.13;;;17.20;99.90;;;;;;5017155;28;20276;-74
2023/06/23 03:53:10;;;;;;;19.48;12.68;;;17.20;99.90;;;;;;5037934;28;20072;-74
2023/06/23 03:55:38;;;;;;;19.80;12.45;;;17.20;99.90;;;;;;5026381;28;20526;-74
2023/06/23 03:58:06;;;;;;;21.23;13.00;;;17.20;99.90;;;;;;5021682;28;20056;-73
2023/06/23 04:00:35;;;;;;;18.92;12.23;;;17.20;99.90;;;;;;5022992;28;20043;-73
2023/06/23 04:03:07;;;;;;;17.98;12.07;;;17.20;99.90;;;;;;5018207;28;20053;-74
2023/06/23 04:05:35;;;;;;;18.98;11.27;;;17.20;99.90;;;;;;5010696;28;20129;-74
2023/06/23 04:08:03;;;;;;;15.25;10.55;;;17.20;99.90;;;;;;5022854;28;20095;-74
2023/06/23 04:10:30;;;;;;;19.63;10.85;;;17.20;99.90;;;;;;5026077;28;20045;-73
2023/06/23 04:13:00;;;;;;;18.80;10.07;;;17.20;99.90;;;;;;5025326;28;20049;-73
2023/06/23 04:15:28;;;;;;;16.13;9.73;;;17.20;99.90;;;;;;5025044;28;20045;-74
2023/06/23 04:17:55;;;;;;;17.17;10.05;;;17.20;99.90;;;;;;5020633;28;20163;-74
2023/06/23 04:20:24;;;;;;;16.20;9.93;;;17.20;99.90;;;;;;5019329;28;20116;-73
2023/06/23 04:22:51;;;;;;;14.50;9.57;;;17.20;99.90;;;;;;5021489;28;20570;-74
2023/06/23 04:25:18;;;;;;;13.68;8.52;;;17.20;99.90;;;;;;5025116;28;20140;-73
2023/06/23 04:27:47;;;;;;;15.40;8.10;;;17.20;99.90;;;;;;5025282;28;20104;-73
2023/06/23 04:30:15;;;;;;;16.55;8.98;;;17.20;99.90;;;;;;5024984;28;20056;-73
2023/06/23 04:32:42;;;;;;;14.70;9.73;;;17.20;99.90;;;;;;5021451;28;20120;-74
2023/06/23 04:35:08;;;;;;;14.50;9.07;;;17.20;99.90;;;;;;5022269;28;20400;-73
2023/06/23 04:37:47;;;;;;;13.80;8.00;;;17.20;99.90;;;;;;5020306;28;20037;-73
2023/06/23 04:40:18;;;;;;;12.75;8.27;;;17.20;99.90;;;;;;5019913;28;20057;-74
2023/06/23 04:42:51;;;;;;;14.85;8.00;;;17.20;99.90;;;;;;5018138;28;20412;-73
2023/06/23 04:45:21;;;;;;;17.65;9.35;;;17.20;99.90;;;;;;5022731;28;20045;-74
2023/06/23 04:47:54;;;;;;;15.70;8.32;;;17.20;99.90;;;;;;5019101;28;20526;-74
2023/06/23 04:50:21;;;;;;;11.75;7.35;;;17.20;99.90;;;;;;5009277;28;20458;-74
2023/06/23 04:52:51;;;;;;;14.20;8.13;;;17.20;99.90;;;;;;5024719;28;20373;-74
2023/06/23 04:55:19;;;;;;;13.77;7.05;;;17.20;99.90;;;;;;5022564;28;20052;-74
2023/06/23 04:57:47;;;;;;;13.23;7.32;;;17.20;99.90;;;;;;5007474;28;20041;-74
2023/06/23 05:00:20;;;;;;;16.83;7.80;;;17.20;99.90;;;;;;5024615;28;20076;-73
2023/06/23 05:02:49;;;;;;;13.25;7.22;;;17.30;99.90;;;;;;5020158;28;20052;-73
2023/06/23 05:05:21;;;;;;;15.98;7.15;;;17.30;99.90;;;;;;5018555;28;20518;-73
2023/06/23 05:10:15;;;;;;;10.60;6.70;;;17.30;99.90;;;;;;5020554;28;20388;-69
2023/06/23 05:12:43;;;;;;;16.83;7.95;;;17.40;99.90;;;;;;5003200;28;20125;-69
2023/06/23 05:15:10;;;;;;;13.10;8.20;;;17.30;99.90;;;;;;4974058;28;20060;-69
2023/06/23 05:17:38;;;;;;;11.68;7.28;;;17.30;99.90;;;;;;5004210;28;20555;-69
2023/06/23 05:20:08;;;;;;;14.13;7.35;;;17.40;99.90;;;;;;4989717;28;20045;-69
2023/06/23 05:22:35;;;;;;;13.77;7.88;;;17.40;99.90;;;;;;5002137;28;20045;-69
2023/06/23 05:25:04;;;;;;;20.90;9.02;;;17.30;99.90;;;;;;5000145;28;20411;-69
2023/06/23 05:27:32;;;;;;;13.35;7.50;;;17.40;99.90;;;;;;4988909;28;20381;-69
2023/06/23 05:30:00;;;;;;;14.43;8.10;;;17.40;99.90;;;;;;4987752;28;20649;-69
2023/06/23 05:32:30;;;;;;;12.38;8.43;;;17.40;99.90;;;;;;4987437;28;20128;-69
2023/06/23 05:35:00;;;;;;;15.48;8.30;;;17.50;99.90;;;;;;5006186;28;20419;-70
2023/06/23 05:37:27;;;;;;;12.52;8.15;;;17.50;99.90;;;;;;4996912;28;20412;-69
2023/06/23 05:39:55;;;;;;;13.38;7.57;;;17.50;99.90;;;;;;4995162;28;20046;-69
2023/06/23 05:42:21;;;;;;;13.27;7.68;;;17.50;99.90;;;;;;4999348;28;20224;-69
2023/06/23 05:44:47;;;;;;;12.18;7.45;;;17.50;99.90;;;;;;5005843;28;20539;-69
2023/06/23 05:47:18;;;;;;;11.82;7.53;;;17.60;99.90;;;;;;4990387;28;20072;-69
2023/06/23 05:49:46;;;;;;;13.98;6.72;;;17.70;99.90;;;;;;4993093;28;20498;-69
2023/06/23 05:52:17;;;;;;;12.82;7.00;;;17.70;99.90;;;;;;4987299;28;20280;-69
2023/06/23 05:54:46;;;;;;;12.40;6.95;;;17.70;99.90;;;;;;5005767;28;20434;-69
2023/06/23 05:57:29;;;;;;;11.82;6.93;;;17.80;99.90;;;;;;4988125;28;20042;-69
2023/06/23 06:00:09;;;;;;;11.10;6.18;;;17.80;99.90;;;;;;5007751;28;20065;-69
2023/06/23 06:02:38;;;;;;;10.23;6.10;;;17.90;99.90;;;;;;4990147;28;20080;-69
2023/06/23 06:05:07;;;;;;;10.73;6.22;;;17.90;99.90;;;;;;5006514;28;20038;-69
2023/06/23 06:07:35;;;;;;;10.75;6.18;;;18.00;99.90;;;;;;4992660;28;20029;-69
2023/06/23 06:10:08;;;;;;;11.88;5.97;;;18.00;99.90;;;;;;5005572;28;20042;-69
2023/06/23 06:12:35;;;;;;;11.10;5.95;;;18.00;99.90;;;;;;5006916;28;20369;-70
2023/06/23 06:15:03;;;;;;;11.25;5.80;;;18.10;99.90;;;;;;4989800;28;20042;-69
2023/06/23 06:17:32;;;;;;;9.77;4.72;;;18.20;99.90;;;;;;5003200;28;20034;-69
2023/06/23 06:20:01;;;;;;;8.45;4.10;;;18.20;99.90;;;;;;5001860;28;20812;-69
2023/06/23 06:22:29;;;;;;;7.18;3.92;;;18.30;99.90;;;;;;5005255;28;20046;-69
2023/06/23 06:24:57;;;;;;;8.68;3.97;;;18.30;99.90;;;;;;5004109;28;20039;-69
2023/06/23 06:27:26;;;;;;;7.60;3.50;;;18.40;99.90;;;;;;5008112;28;20372;-70
2023/06/23 06:29:55;;;;;;;6.32;3.28;;;18.40;99.90;;;;;;4992828;28;20121;-69
2023/06/23 06:32:22;;;;;;;6.35;3.63;;;18.50;99.90;;;;;;5000979;28;20030;-70
2023/06/23 06:34:50;;;;;;;6.05;3.40;;;18.60;99.90;;;;;;4983567;28;20128;-69
2023/06/23 06:37:18;;;;;;;8.07;4.13;;;18.60;99.90;;;;;;4982943;28;20464;-69
2023/06/23 06:39:47;;;;;;;5.65;3.50;;;18.70;99.90;;;;;;4997301;28;20042;-69
2023/06/23 06:42:13;;;;;;;4.72;3.25;;;18.70;99.90;;;;;;4993196;28;20143;-70
2023/06/23 06:44:39;;;;;;;8.02;3.47;;;18.80;99.90;;;;;;4982913;28;20077;-70
2023/06/23 06:47:06;;;;;;;7.50;3.63;;;18.80;99.90;;;;;;4975265;28;20058;-70
2023/06/23 06:49:34;;;;;;;7.07;3.88;;;18.90;99.90;;;;;;5006855;28;20372;-70
2023/06/23 06:52:01;;;;;;;6.25;3.50;;;18.90;99.90;;;;;;4991515;28;20061;-70
2023/06/23 06:54:27;;;;;;;6.72;3.88;;;19.00;99.90;;;;;;4990755;28;20038;-70
2023/06/23 06:56:55;;;;;;;6.65;4.03;;;19.10;99.90;;;;;;5005113;28;20045;-70
2023/06/23 06:59:21;;;;;;;7.70;4.45;;;19.20;99.90;;;;;;4989122;28;20088;-69
2023/06/23 07:01:47;;;;;;;;;;;19.20;99.90;;;;;;4992034;28;20045;-71
2023/06/23 07:04:13;;;;;;;13.23;5.20;;;19.30;99.90;;;;;;5009170;28;19931;-69
2023/06/23 07:06:40;;;;;;;8.50;4.53;;;19.30;99.90;;;;;;4989872;28;20050;-70
2023/06/23 07:09:06;;;;;;;9.77;5.68;;;19.40;99.90;;;;;;4992647;28;20154;-69
2023/06/23 07:11:32;;;;;;;10.85;5.72;;;19.50;99.90;;;;;;4993353;28;20053;-69
2023/06/23 07:13:59;;;;;;;9.93;4.78;;;19.50;99.90;;;;;;4989043;28;20041;-70
2023/06/23 07:16:30;;;;;;;9.77;3.70;;;19.60;99.90;;;;;;5006142;28;20500;-69
2023/06/23 07:18:56;;;;;;;5.95;3.42;;;19.70;99.90;;;;;;5007557;28;20368;-69
2023/06/23 07:21:22;;;;;;;5.82;3.10;;;19.70;99.90;;;;;;5004160;28;20042;-70
2023/06/23 07:23:48;;;;;;;7.70;3.50;;;19.80;99.90;;;;;;5006072;28;20044;-70
2023/06/23 07:26:13;;;;;;;6.75;3.53;;;19.80;99.90;;;;;;4991876;28;20050;-70
2023/06/23 07:28:39;;;;;;;7.38;3.72;;;19.80;99.90;;;;;;4990913;28;20065;-70
2023/06/23 07:31:05;;;;;;;7.25;3.88;;;19.80;99.90;;;;;;5007436;28;20041;-70
2023/06/23 07:33:30;;;;;;;7.95;4.32;;;19.90;99.90;;;;;;5005507;28;20300;-69
2023/06/23 07:35:56;;;;;;;6.72;4.38;;;20.00;99.90;;;;;;5009839;28;20042;-69
2023/06/23 07:38:22;;;;;;;8.15;4.10;;;20.00;99.90;;;;;;4995635;28;20030;-69
2023/06/23 07:40:48;;;;;;;5.97;3.80;;;20.10;99.90;;;;;;4990593;28;20092;-70
2023/06/23 07:43:13;;;;;;;8.48;4.80;;;20.10;99.90;;;;;;5007201;28;20077;-72
2023/06/23 07:45:39;;;;;;;6.65;4.88;;;20.20;99.90;;;;;;4971924;28;20775;-69
2023/06/23 07:48:05;;;;;;;7.65;3.97;;;20.20;99.90;;;;;;5005255;28;20063;-69
2023/06/23 07:50:30;;;;;;;10.88;4.82;;;20.30;99.90;;;;;;5002745;28;20042;-69
2023/06/23 07:52:56;;;;;;;6.85;4.25;;;20.30;99.90;;;;;;4993535;28;20077;-70
2023/06/23 07:55:22;;;;;;;8.07;4.30;;;20.40;99.90;;;;;;4991703;28;20095;-69
2023/06/23 07:57:50;;;;;;;7.00;4.45;;;20.50;99.90;;;;;;5011097;28;20119;-69
2023/06/23 08:00:16;;;;;;;7.93;4.20;;;20.50;99.90;;;;;;4987321;28;20054;-69
2023/06/23 08:02:42;;;;;;;6.72;4.57;;;20.60;99.90;;;;;;5013201;28;20049;-69
2023/06/23 08:05:08;;;;;;;10.98;4.70;;;20.60;99.90;;;;;;5007781;28;20045;-69
2023/06/23 08:07:35;;;;;;;10.43;5.10;;;20.60;99.90;;;;;;4958297;28;20125;-69
2023/06/23 08:10:01;;;;;;;7.57;4.43;;;20.70;99.90;;;;;;4989006;28;20046;-69
2023/06/23 08:12:26;;;;;;;9.73;5.22;;;20.80;99.90;;;;;;4985856;28;20068;-68
2023/06/23 08:14:52;;;;;;;7.75;5.20;;;20.80;99.90;;;;;;4999395;28;20042;-69
2023/06/23 08:17:17;;;;;;;7.47;4.45;;;20.80;99.90;;;;;;4988028;28;20285;-69
2023/06/23 08:19:43;;;;;;;9.43;4.13;;;20.90;99.90;;;;;;5000799;28;20053;-69
2023/06/23 08:22:09;;;;;;;6.80;3.92;;;20.90;99.90;;;;;;5008787;28;20109;-69
2023/06/23 08:24:35;;;;;;;6.50;3.53;;;21.00;99.90;;;;;;4985788;28;20042;-69
2023/06/23 08:27:01;;;;;;;;;;;21.00;99.90;;;;;;4984640;28;20041;-69
2023/06/23 08:29:30;;;;;;;6.60;3.40;;;21.10;99.90;;;;;;4982597;28;19921;-69
2023/06/23 08:31:55;;;;;;;6.07;3.40;;;21.10;99.90;;;;;;5007686;28;20042;-69
2023/06/23 08:34:24;;;;;;;;;;;21.10;99.90;;;;;;4984207;28;20041;-69
2023/06/23 08:36:50;;;;;;;5.57;3.75;;;21.20;99.90;;;;;;4996422;28;20092;-69
2023/06/23 08:39:16;;;;;;;;;;;21.20;99.90;;;;;;4997895;28;20042;-69
2023/06/23 08:41:42;;;;;;;4.78;2.80;;;21.30;99.90;;;;;;4979630;28;19917;-69
2023/06/23 08:44:13;;;;;;;6.45;2.88;;;21.30;99.90;;;;;;4996634;28;20050;-69
2023/06/23 08:46:41;;;;;;;5.82;3.15;;;21.40;99.90;;;;;;4984319;28;20511;-69
2023/06/23 08:49:12;;;;;;;4.95;3.17;;;21.40;99.90;;;;;;4990918;28;20115;-69
2023/06/23 08:51:39;;;;;;;6.28;3.35;;;21.50;99.90;;;;;;5002458;28;20077;-69
2023/06/23 08:54:05;;;;;;;7.43;3.28;;;21.60;99.90;;;;;;4987039;28;20532;-70
2023/06/23 08:56:31;;;;;;;;;;;21.60;99.90;;;;;;5006203;28;20050;-69
2023/06/23 08:58:57;;;;;;;5.40;2.80;;;21.70;99.90;;;;;;4985186;28;19919;-69
2023/06/23 09:01:23;;;;;;;;;;;21.70;99.90;;;;;;4989594;28;20077;-69
2023/06/23 09:03:50;;;;;;;3.72;2.38;;;21.80;99.90;;;;;;5003543;28;20407;-70
2023/06/23 09:06:16;;;;;;;4.95;2.72;;;21.80;99.90;;;;;;4980559;28;20042;-69
2023/06/23 09:08:42;;;;;;;;;;;21.90;99.90;;;;;;4992351;28;20042;-69
2023/06/23 09:11:07;;;;;;;7.97;3.28;;;22.00;99.90;;;;;;5004832;28;19925;-69
2023/06/23 09:13:40;;;;;;;5.30;3.03;;;22.20;99.90;;;;;;5004443;28;20042;-69
2023/06/23 09:16:09;;;;;;;8.20;2.72;;;22.30;99.90;;;;;;4983767;28;20049;-70
2023/06/23 09:18:40;;;;;;;4.82;2.20;;;22.30;99.90;;;;;;4986574;28;20049;-69
2023/06/23 09:21:07;;;;;;;4.78;2.85;;;22.40;99.90;;;;;;4990632;28;20073;-69
2023/06/23 09:23:37;;;;;;;6.15;3.15;;;22.50;99.90;;;;;;4989529;28;20048;-69
2023/06/23 09:26:06;;;;;;;4.65;2.60;;;22.60;99.90;;;;;;4988633;28;20049;-69
2023/06/23 09:28:35;;;;;;;;;;;22.70;99.90;;;;;;5003345;28;20048;-68
2023/06/23 09:31:07;;;;;;;6.13;3.13;;;22.60;99.90;;;;;;4998617;28;19996;-69
2023/06/23 09:33:33;;;;;;;5.70;3.05;;;22.70;99.90;;;;;;4989735;28;20037;-69
2023/06/23 09:36:03;;;;;;;;;;;22.80;99.90;;;;;;4996607;28;20045;-69
2023/06/23 09:38:34;;;;;;;7.28;3.00;;;22.80;99.90;;;;;;4984664;28;19918;-69
2023/06/23 09:41:12;;;;;;;5.72;3.13;;;22.80;99.90;;;;;;5003700;28;20136;-68
2023/06/23 09:43:40;;;;;;;6.80;2.90;;;22.80;99.90;;;;;;4999993;28;20480;-69
2023/06/23 09:46:07;;;;;;;4.95;3.03;;;22.80;99.90;;;;;;5002149;28;20041;-69
2023/06/23 09:48:33;;;;;;;7.05;2.83;;;22.80;99.90;;;;;;5007844;28;20403;-69
2023/06/23 09:50:59;;;;;;;;;;;23.00;99.90;;;;;;5009710;28;20038;-69
2023/06/23 09:53:24;;;;;;;6.57;3.17;;;23.00;99.90;;;;;;5004859;28;20004;-69
2023/06/23 09:55:50;;;;;;;;;;;23.10;99.90;;;;;;5006511;28;20138;-69
2023/06/23 09:58:17;;;;;;;7.18;3.08;;;23.00;99.90;;;;;;5011144;28;19926;-69
2023/06/23 10:00:43;;;;;;;4.97;3.03;;;23.00;99.90;;;;;;4987813;28;20059;-69
2023/06/23 10:03:08;;;;;;;;;;;23.10;99.90;;;;;;4986937;28;20511;-69
2023/06/23 10:05:35;;;;;;;4.05;2.45;;;23.20;99.90;;;;;;4991344;28;20266;-69
2023/06/23 10:08:13;;;;;;;3.45;2.30;;;23.20;99.90;;;;;;4985556;28;20045;-68
2023/06/23 10:10:43;;;;;;;4.43;2.47;;;23.20;99.90;;;;;;4981163;28;20614;-70
2023/06/23 10:13:09;;;;;;;6.45;2.53;;;23.30;99.90;;;;;;4999344;28;20042;-69
2023/06/23 10:15:35;;;;;;;;;;;23.30;99.90;;;;;;4998804;28;20092;-68
2023/06/23 10:18:01;;;;;;;4.65;2.63;;;23.40;99.90;;;;;;5004578;28;20375;-69
2023/06/23 10:20:27;;;;;;;4.50;2.80;;;23.40;99.90;;;;;;4994470;28;20137;-69
2023/06/23 10:22:55;;;;;;;;;;;23.50;99.90;;;;;;4992800;28;20050;-69
2023/06/23 10:25:22;;;;;;;5.20;3.08;;;23.60;99.90;;;;;;4991752;28;19987;-69
2023/06/23 10:27:50;;;;;;;6.72;3.58;;;23.70;99.90;;;;;;5005042;28;20046;-69
2023/06/23 10:30:18;;;;;;;7.32;3.30;;;23.80;99.90;;;;;;5003327;28;20042;-69
2023/06/23 10:32:56;;;;;;;6.47;3.10;;;23.80;99.90;;;;;;4977975;28;20481;-69
2023/06/23 10:35:23;;;;;;;7.28;3.60;;;23.80;99.90;;;;;;4995560;28;20050;-70
2023/06/23 10:37:55;;;;;;;5.03;2.70;;;23.80;99.90;;;;;;4995401;28;20187;-69
2023/06/23 10:40:24;;;;;;;5.18;2.85;;;23.80;99.90;;;;;;4988261;28;20484;-69
2023/06/23 10:42:52;;;;;;;4.25;3.30;;;23.80;99.90;;;;;;4986042;28;20061;-69
2023/06/23 10:45:17;;;;;;;5.07;2.58;;;23.90;99.90;;;;;;4989512;28;20664;-69
2023/06/23 10:47:44;;;;;;;7.95;2.88;;;23.90;99.90;;;;;;5009743;28;20088;-69
2023/06/23 10:50:12;;;;;;;4.20;2.70;;;23.90;99.90;;;;;;5006667;28;20053;-69
2023/06/23 10:52:37;;;;;;;7.10;3.22;;;23.90;99.90;;;;;;5004802;28;20069;-69
2023/06/23 10:55:36;;;;;;;5.03;2.85;;;24.00;99.90;;;;;;5011756;28;20061;-69
2023/06/23 10:58:12;;;;;;;6.47;3.25;;;24.00;99.90;;;;;;5008222;28;20146;-69
2023/06/23 11:00:37;;;;;;;4.70;3.00;;;24.00;99.90;;;;;;5007490;28;20046;-69
2023/06/23 11:03:08;;;;;;;7.10;3.55;;;24.10;99.90;;;;;;4990981;28;20450;-69
2023/06/23 11:05:51;;;;;;;5.20;2.78;;;24.10;99.90;;;;;;4993588;28;20515;-68
2023/06/23 11:08:17;;;;;;;6.40;3.13;;;24.30;99.90;;;;;;4998979;28;20038;-70
2023/06/23 11:10:51;;;;;;;5.10;2.67;;;24.30;99.90;;;;;;4996223;28;20093;-69
2023/06/23 11:13:17;;;;;;;3.85;2.38;;;24.30;99.90;;;;;;4985320;28;20050;-69
2023/06/23 11:15:58;;;;;;;3.70;2.13;;;24.40;99.90;;;;;;4998859;28;20037;-69
2023/06/23 11:18:26;;;;;;;4.20;2.60;;;24.50;99.90;;;;;;4984789;28;20376;-69
2023/06/23 11:20:52;;;;;;;3.33;2.10;;;24.60;99.90;;;;;;4988329;28;20120;-69
2023/06/23 11:23:18;;;;;;;4.63;2.40;;;24.60;99.90;;;;;;4987622;28;20551;-69
2023/06/23 11:25:47;;;;;;;6.18;2.35;;;24.60;99.90;;;;;;4996022;28;20045;-69
2023/06/23 11:28:38;;;;;;;4.05;1.73;;;24.70;99.90;;;;;;5009138;28;20120;-69
2023/06/23 11:31:20;;;;;;;4.05;2.25;;;24.70;96.90;;;;;;5002164;28;20049;-69
2023/06/23 11:33:55;;;;;;;4.45;2.40;;;24.80;97.30;;;;;;4992257;28;20518;-69
2023/06/23 11:36:24;;;;;;;4.18;2.15;;;24.80;96.10;;;;;;4990745;28;20033;-69
2023/06/23 11:38:50;;;;;;;4.10;2.38;;;24.80;97.40;;;;;;4986788;28;20042;-69
2023/06/23 11:41:25;;;;;;;5.50;2.35;;;24.90;97.40;;;;;;5006634;28;20099;-69
2023/06/23 11:43:59;;;;;;;6.55;1.90;;;25.00;95.50;;;;;;4991541;28;20034;-69
2023/06/23 11:46:25;;;;;;;4.28;1.70;;;25.10;94.80;;;;;;5002687;28;20045;-69
2023/06/23 11:48:51;;;;;;;3.67;1.88;;;25.10;91.50;;;;;;4990978;28;20102;-69
2023/06/23 11:51:18;;;;;;;2.90;1.75;;;25.00;90.40;;;;;;5007301;28;20403;-69
2023/06/23 11:53:51;;;;;;;7.65;2.80;;;25.10;90.90;;;;;;4989651;28;20200;-69
2023/06/23 11:56:19;;;;;;;3.70;1.77;;;25.10;90.60;;;;;;4990084;28;20132;-70
2023/06/23 11:58:50;;;;;;;4.72;2.00;;;25.00;90.50;;;;;;4973619;28;20041;-72
2023/06/23 12:01:19;;;;;;;8.27;3.63;;;25.00;89.80;;;;;;5005413;28;20310;-70
2023/06/23 12:03:55;;;;;;;3.92;2.28;;;25.10;91.60;;;;;;4989848;28;20076;-70
2023/06/23 12:06:23;;;;;;;3.45;1.90;;;25.20;91.00;;;;;;5005872;28;20154;-74
2023/06/23 12:08:50;;;;;;;3.75;2.47;;;25.30;91.00;;;;;;4992452;28;20132;-70
2023/06/23 12:11:20;;;;;;;7.40;2.70;;;25.40;90.70;;;;;;5003996;28;20144;-70
2023/06/23 12:13:47;;;;;;;6.20;2.40;;;25.50;90.40;;;;;;4985320;28;20076;-70
2023/06/23 12:16:13;;;;;;;4.13;1.70;;;25.60;88.80;;;;;;4990856;28;20338;-70
2023/06/23 12:18:45;;;;;;;4.20;2.10;;;25.70;89.70;;;;;;4983292;28;20542;-70
2023/06/23 12:21:11;;;;;;;6.13;2.25;;;25.80;89.70;;;;;;5003316;28;20042;-69
2023/06/23 12:23:38;;;;;;;4.10;1.52;;;25.90;89.20;;;;;;4985862;28;20122;-70
2023/06/23 12:26:06;;;;;;;6.13;2.38;;;25.90;87.90;;;;;;4988359;28;20138;-69
2023/06/23 12:28:32;;;;;;;3.25;1.67;;;25.80;86.10;;;;;;5007289;28;20045;-69
2023/06/23 12:30:58;;;;;;;4.68;1.63;;;25.80;86.30;;;;;;4990941;28;20234;-70
2023/06/23 12:33:28;;;;;;;3.08;1.90;;;25.60;86.20;;;;;;4993011;28;20195;-69
2023/06/23 12:36:02;;;;;;;4.28;1.60;;;25.60;86.60;;;;;;4989792;28;20049;-69
2023/06/23 12:38:30;;;;;;;4.63;1.63;;;25.70;86.80;;;;;;4991309;28;20042;-70
2023/06/23 12:41:12;;;;;;;4.25;2.17;;;25.70;84.20;;;;;;4989881;28;20038;-70
2023/06/23 12:43:39;;;;;;;4.15;1.70;;;25.70;83.20;;;;;;4970757;28;20057;-70
2023/06/23 12:46:04;;;;;;;3.15;1.58;;;25.70;84.20;;;;;;5004401;28;20058;-70
2023/06/23 12:48:30;;;;;;;3.17;1.80;;;25.50;83.20;;;;;;5004250;28;20117;-69
2023/06/23 12:50:58;;;;;;;5.38;1.60;;;25.40;83.10;;;;;;4998707;28;20127;-70
2023/06/23 12:53:24;;;;;;;3.88;1.88;;;25.30;83.40;;;;;;4983890;28;20503;-70
2023/06/23 12:55:50;;;;;;;2.58;1.60;;;25.20;82.80;;;;;;5005770;28;20139;-69